Time;durP1;ratioP1;P1;durP2;ratioP2;P2;SDS_P1;SDS_P2;PMS_P1;PMS_P2;Temp;Humidity;BMP_temperature;BMP_pressure;BME280_temperature;BME280_humidity;BME280_pressure;Samples;Min_cycle;Max_cycle;Signal;HPM_P1;HPM_P2
2022/12/21 00:01:09;;;;;;;75.57;17.33;;;;;;;;;;5052500;28;20226;-77
2022/12/21 00:03:36;;;;;;;74.53;17.23;;;;;;;;;;5052393;28;20984;-77
2022/12/21 00:06:05;;;;;;;74.97;16.88;;;;;;;;;;5052346;28;20259;-77
2022/12/21 00:08:35;;;;;;;73.70;17.07;;;;;;;;;;5052047;28;20202;-77
2022/12/21 00:11:02;;;;;;;81.90;16.90;;;;;;;;;;5052296;28;20464;-77
2022/12/21 00:13:31;;;;;;;81.32;18.73;;;;;;;;;;5052551;28;20453;-76
2022/12/21 00:15:59;;;;;;;77.03;17.40;;;;;;;;;;5052218;28;20212;-76
2022/12/21 00:18:26;;;;;;;73.77;17.50;;;;;;;;;;5052065;28;20488;-76
2022/12/21 00:21:00;;;;;;;73.68;16.73;;;;;;;;;;5051957;28;20813;-76
2022/12/21 00:23:28;;;;;;;76.38;18.35;;;;;;;;;;5051212;28;20212;-76
2022/12/21 00:25:56;;;;;;;77.78;16.77;;;;;;;;;;5052111;28;20232;-76
2022/12/21 00:28:23;;;;;;;78.55;18.85;;;;;;;;;;5051921;28;20202;-76
2022/12/21 00:30:50;;;;;;;77.77;19.00;;;;;;;;;;5051172;28;20718;-76
2022/12/21 00:33:17;;;;;;;79.63;19.33;;;;;;;;;;5051918;28;20454;-73
2022/12/21 00:35:48;;;;;;;76.03;18.40;;;;;;;;;;5052130;28;20448;-74
2022/12/21 00:38:15;;;;;;;75.90;17.77;;;;;;;;;;5051843;28;20484;-74
2022/12/21 00:40:43;;;;;;;76.95;17.92;;;;;;;;;;5051415;28;20233;-74
2022/12/21 00:43:11;;;;;;;74.13;17.77;;;;;;;;;;5052011;28;20465;-74
2022/12/21 00:45:38;;;;;;;78.32;17.80;;;;;;;;;;5051976;28;20202;-74
2022/12/21 00:48:06;;;;;;;75.13;17.17;;;;;;;;;;5051955;28;20232;-74
2022/12/21 00:50:33;;;;;;;75.15;17.77;;;;;;;;;;5051093;28;20476;-74
2022/12/21 00:53:00;;;;;;;72.03;15.65;;;;;;;;;;5051819;28;20209;-73
2022/12/21 00:55:27;;;;;;;72.28;16.15;;;;;;;;;;5051794;28;20215;-74
2022/12/21 00:57:56;;;;;;;73.77;16.37;;;;;;;;;;5051821;28;20594;-73
2022/12/21 01:00:23;;;;;;;73.78;15.48;;;;;;;;;;5050746;28;20483;-74
2022/12/21 01:02:50;;;;;;;72.05;15.82;;;;;;;;;;5051608;28;20217;-74
2022/12/21 01:05:17;;;;;;;81.90;15.80;;;;;;;;;;5051726;28;20208;-73
2022/12/21 01:07:45;;;;;;;74.25;15.57;;;;;;;;;;5051619;28;20582;-73
2022/12/21 01:10:12;;;;;;;72.40;14.40;;;;;;;;;;5050720;28;20236;-75
2022/12/21 01:12:39;;;;;;;76.90;17.83;;;;;;;;;;5051390;28;21059;-75
2022/12/21 01:15:08;;;;;;;71.87;15.00;;;;;;;;;;5051794;28;20444;-75
2022/12/21 01:17:35;;;;;;;70.77;14.50;;;;;;;;;;5051565;28;21019;-75
2022/12/21 01:20:03;;;;;;;74.00;14.90;;;;;;;;;;5050636;28;20448;-74
2022/12/21 01:22:30;;;;;;;73.43;16.10;;;;;;;;;;5051671;28;20813;-73
2022/12/21 01:24:58;;;;;;;74.27;15.30;;;;;;;;;;5051476;28;20452;-75
2022/12/21 01:27:25;;;;;;;68.53;12.03;;;;;;;;;;5051301;28;20456;-75
2022/12/21 01:29:52;;;;;;;72.90;14.50;;;;;;;;;;5050773;28;20448;-75
2022/12/21 01:32:20;;;;;;;74.40;12.87;;;;;;;;;;5051254;28;20464;-75
2022/12/21 01:34:47;;;;;;;70.00;13.80;;;;;;;;;;5051682;28;20456;-75
2022/12/21 01:37:14;;;;;;;74.20;14.53;;;;;;;;;;5055630;28;20815;-75
2022/12/21 01:39:41;;;;;;;68.97;14.23;;;;;;;;;;5054373;28;20452;-75
2022/12/21 01:42:11;;;;;;;71.33;15.10;;;;;;;;;;5055032;28;20985;-76
2022/12/21 01:44:56;;;;;;;70.17;13.80;;;;;;;;;;5054311;28;20452;-75
2022/12/21 01:47:28;;;;;;;73.57;13.80;;;;;;;;;;5054300;28;20474;-76
2022/12/21 01:49:57;;;;;;;71.47;12.70;;;;;;;;;;5053132;28;20455;-76
2022/12/21 01:52:24;;;;;;;70.27;14.03;;;;;;;;;;5053870;28;20996;-76
2022/12/21 01:54:53;;;;;;;67.80;12.80;;;;;;;;;;5054628;28;20830;-76
2022/12/21 01:57:20;;;;;;;70.27;12.80;;;;;;;;;;5053947;28;20933;-76
2022/12/21 01:59:49;;;;;;;70.80;14.37;;;;;;;;;;5053391;28;20960;-76
2022/12/21 02:02:19;;;;;;;73.10;15.50;;;;;;;;;;5054421;28;20519;-75
2022/12/21 02:04:47;;;;;;;71.27;14.50;;;;;;;;;;5054508;28;20456;-76
2022/12/21 02:07:15;;;;;;;69.17;14.03;;;;;;;;;;5053940;28;20451;-76
2022/12/21 02:09:42;;;;;;;71.00;13.60;;;;;;;;;;5053419;28;20448;-75
2022/12/21 02:12:11;;;;;;;71.23;13.23;;;;;;;;;;5054011;28;20479;-76
2022/12/21 02:14:39;;;;;;;70.50;11.77;;;;;;;;;;5054453;28;20448;-75
2022/12/21 02:17:10;;;;;;;69.27;12.60;;;;;;;;;;5054225;28;20448;-75
2022/12/21 02:19:52;;;;;;;69.07;13.90;;;;;;;;;;5053394;28;20487;-75
2022/12/21 02:22:26;;;;;;;68.50;13.23;;;;;;;;;;5054445;28;20452;-75
2022/12/21 02:25:11;;;;;;;72.87;14.70;;;;;;;;;;5054284;28;20455;-75
2022/12/21 02:27:49;;;;;;;68.07;12.57;;;;;;;;;;5053762;28;20964;-75
2022/12/21 02:30:18;;;;;;;74.80;13.80;;;;;;;;;;5049588;28;20995;-75
2022/12/21 02:33:02;;;;;;;69.07;12.93;;;;;;;;;;5054199;28;20448;-75
2022/12/21 02:35:36;;;;;;;70.67;14.97;;;;;;;;;;5054036;28;20443;-75
2022/12/21 02:38:09;;;;;;;71.87;15.40;;;;;;;;;;5053980;28;20496;-75
2022/12/21 02:40:42;;;;;;;77.70;18.80;;;;;;;;;;5053420;28;20482;-75
2022/12/21 02:45:59;;;;;;;89.20;14.33;;;;;;;;;;5053855;28;20407;-75
2022/12/21 02:48:30;;;;;;;72.00;16.50;;;;;;;;;;5052916;28;20455;-75
2022/12/21 02:51:01;;;;;;;71.80;16.40;;;;;;;;;;5053655;28;20469;-75
2022/12/21 02:53:30;;;;;;;74.07;14.80;;;;;;;;;;5053872;28;20459;-75
2022/12/21 02:55:58;;;;;;;76.20;20.93;;;;;;;;;;5053834;28;20448;-75
2022/12/21 02:58:25;;;;;;;80.27;20.70;;;;;;;;;;5053517;28;20857;-75
2022/12/21 03:01:01;;;;;;;70.97;14.57;;;;;;;;;;5053320;28;20494;-75
2022/12/21 03:03:49;;;;;;;69.20;10.70;;;;;;;;;;5053935;28;20819;-75
2022/12/21 03:06:23;;;;;;;68.37;13.03;;;;;;;;;;5053694;28;20825;-75
2022/12/21 03:08:56;;;;;;;67.20;11.10;;;;;;;;;;5052814;28;20444;-75
2022/12/21 03:11:26;;;;;;;71.57;13.07;;;;;;;;;;5053691;28;20506;-75
2022/12/21 03:13:59;;;;;;;69.63;12.53;;;;;;;;;;5053474;28;20453;-75
2022/12/21 03:16:30;;;;;;;66.20;10.50;;;;;;;;;;5053482;28;20452;-75
2022/12/21 03:19:01;;;;;;;68.13;10.90;;;;;;;;;;5052372;28;20480;-75
2022/12/21 03:21:32;;;;;;;66.17;9.47;;;;;;;;;;5053702;28;20469;-75
2022/12/21 03:24:03;;;;;;;65.13;9.50;;;;;;;;;;5053249;28;20941;-75
2022/12/21 03:26:32;;;;;;;67.33;9.70;;;;;;;;;;5053378;28;20455;-75
2022/12/21 03:29:01;;;;;;;72.30;11.73;;;;;;;;;;5052300;28;20449;-73
2022/12/21 03:31:30;;;;;;;65.10;9.80;;;;;;;;;;5052827;28;20476;-73
2022/12/21 03:33:59;;;;;;;63.23;8.30;;;;;;;;;;5053304;28;20791;-73
2022/12/21 03:36:29;;;;;;;65.50;9.43;;;;;;;;;;5053128;28;20444;-73
2022/12/21 03:39:00;;;;;;;63.77;8.60;;;;;;;;;;5052262;28;20484;-73
2022/12/21 03:41:30;;;;;;;63.80;9.10;;;;;;;;;;5052842;28;20997;-74
2022/12/21 03:43:59;;;;;;;65.17;7.83;;;;;;;;;;5052861;28;20448;-73
2022/12/21 03:46:29;;;;;;;68.00;8.13;;;;;;;;;;5053013;28;20463;-74
2022/12/21 03:48:58;;;;;;;62.70;7.50;;;;;;;;;;5051900;28;20458;-74
2022/12/21 03:51:31;;;;;;;64.57;7.93;;;;;;;;;;5052713;28;20468;-73
2022/12/21 03:54:03;;;;;;;61.97;7.07;;;;;;;;;;5052699;28;20452;-73
2022/12/21 03:56:31;;;;;;;64.83;7.83;;;;;;;;;;5052529;28;20531;-74
2022/12/21 03:58:58;;;;;;;62.50;7.00;;;;;;;;;;5051343;28;20502;-74
2022/12/21 04:01:31;;;;;;;62.70;7.80;;;;;;;;;;5052445;28;20991;-74
2022/12/21 04:04:00;;;;;;;62.40;6.70;;;;;;;;;;5052554;28;20444;-74
2022/12/21 04:06:28;;;;;;;65.10;7.20;;;;;;;;;;5052434;28;20451;-76
2022/12/21 04:08:56;;;;;;;61.23;6.83;;;;;;;;;;5051658;28;20456;-76
2022/12/21 04:14:09;;;;;;;61.37;6.13;;;;;;;;;;5052528;28;20956;-75
2022/12/21 04:16:36;;;;;;;61.63;6.80;;;;;;;;;;5052458;28;20483;-75
2022/12/21 04:21:48;;;;;;;64.90;6.70;;;;;;;;;;5052286;28;20524;-75
2022/12/21 04:29:45;;;;;;;62.20;7.30;;;;;;;;;;5051257;28;20435;-75
2022/12/21 04:32:12;;;;;;;61.90;6.27;;;;;;;;;;5051920;28;20767;-75
2022/12/21 04:34:40;;;;;;;60.43;5.20;;;;;;;;;;5052165;28;20458;-72
2022/12/21 04:39:51;;;;;;;63.60;6.43;;;;;;;;;;5051531;28;20553;-72
2022/12/21 04:42:20;;;;;;;64.77;6.63;;;;;;;;;;5051818;28;20456;-72
2022/12/21 04:44:47;;;;;;;60.10;5.40;;;;;;;;;;5051779;28;20444;-72
2022/12/21 04:47:14;;;;;;;60.07;5.57;;;;;;;;;;5051871;28;20458;-72
2022/12/21 04:49:41;;;;;;;65.40;6.17;;;;;;;;;;5051018;28;20944;-72
2022/12/21 04:52:08;;;;;;;61.40;5.60;;;;;;;;;;5051810;28;20476;-72
2022/12/21 04:54:35;;;;;;;60.97;6.40;;;;;;;;;;5051868;28;20955;-72
2022/12/21 04:57:03;;;;;;;61.20;5.60;;;;;;;;;;5051553;28;20452;-72
2022/12/21 04:59:31;;;;;;;64.50;6.33;;;;;;;;;;5051172;28;20479;-72
2022/12/21 05:01:58;;;;;;;60.57;5.60;;;;;;;;;;5051816;28;20467;-72
2022/12/21 05:04:26;;;;;;;65.27;5.80;;;;;;;;;;5051713;28;20444;-72
2022/12/21 05:06:54;;;;;;;60.80;5.33;;;;;;;;;;5051578;28;20452;-72
2022/12/21 05:09:22;;;;;;;65.07;5.93;;;;;;;;;;5050727;28;20494;-72
2022/12/21 05:11:49;;;;;;;65.30;5.37;;;;;;;;;;5055517;28;20545;-72
2022/12/21 05:14:16;;;;;;;62.77;5.93;;;;;;;;;;5055642;28;20462;-72
2022/12/21 05:16:45;;;;;;;59.87;5.37;;;;;;;;;;5055579;28;20932;-72
2022/12/21 05:19:12;;;;;;;64.23;6.00;;;;;;;;;;5054878;28;20487;-72
2022/12/21 05:21:39;;;;;;;62.07;6.60;;;;;;;;;;5055139;28;20493;-73
2022/12/21 05:24:07;;;;;;;62.10;7.20;;;;;;;;;;5055396;28;20456;-72
2022/12/21 05:26:34;;;;;;;63.27;7.07;;;;;;;;;;5055385;28;20475;-72
2022/12/21 05:29:01;;;;;;;64.13;8.23;;;;;;;;;;5054839;28;20447;-72
2022/12/21 05:31:28;;;;;;;65.97;7.80;;;;;;;;;;5055044;28;20480;-73
2022/12/21 05:33:56;;;;;;;64.40;6.80;;;;;;;;;;5055290;28;20949;-72
2022/12/21 05:36:24;;;;;;;67.93;7.23;;;;;;;;;;5055266;28;20448;-72
2022/12/21 05:38:51;;;;;;;60.87;5.90;;;;;;;;;;5054371;28;21149;-73
2022/12/21 05:41:18;;;;;;;62.67;7.10;;;;;;;;;;5055085;28;20474;-73
2022/12/21 05:43:45;;;;;;;66.13;7.50;;;;;;;;;;5055329;28;20448;-72
2022/12/21 05:46:13;;;;;;;63.43;7.67;;;;;;;;;;5055139;28;20448;-73
2022/12/21 05:48:40;;;;;;;64.20;7.67;;;;;;;;;;5054421;28;20451;-72
2022/12/21 05:51:10;;;;;;;68.40;6.80;;;;;;;;;;5054804;28;20479;-72
2022/12/21 05:53:37;;;;;;;62.40;6.83;;;;;;;;;;5055164;28;20459;-72
2022/12/21 05:56:05;;;;;;;62.67;7.77;;;;;;;;;;5055112;28;20513;-72
2022/12/21 05:58:32;;;;;;;63.77;8.03;;;;;;;;;;5054238;28;20452;-72
2022/12/21 06:01:01;;;;;;;64.07;6.60;;;;;;;;;;5054774;28;20474;-72
2022/12/21 06:03:28;;;;;;;65.97;7.47;;;;;;;;;;5054595;28;20452;-72
2022/12/21 06:05:55;;;;;;;67.83;8.70;;;;;;;;;;5054874;28;20452;-75
2022/12/21 06:08:23;;;;;;;64.43;7.60;;;;;;;;;;5054886;28;20445;-75
2022/12/21 06:10:50;;;;;;;63.37;8.03;;;;;;;;;;5054007;28;20464;-75
2022/12/21 06:13:17;;;;;;;62.83;6.47;;;;;;;;;;5054803;28;20444;-74
2022/12/21 06:15:44;;;;;;;60.30;5.43;;;;;;;;;;5054382;28;20456;-75
2022/12/21 06:18:12;;;;;;;61.13;6.00;;;;;;;;;;5054271;28;20452;-74
2022/12/21 06:20:39;;;;;;;62.37;6.97;;;;;;;;;;5053690;28;20495;-75
2022/12/21 06:23:06;;;;;;;61.20;6.83;;;;;;;;;;5055641;28;20956;-77
2022/12/21 06:25:34;;;;;;;61.60;6.40;;;;;;;;;;5057410;28;20448;-77
2022/12/21 06:28:01;;;;;;;61.40;6.70;;;;;;;;;;5054887;28;20452;-76
2022/12/21 06:30:29;;;;;;;63.87;6.37;;;;;;;;;;5054287;28;20514;-76
2022/12/21 06:32:57;;;;;;;62.50;7.00;;;;;;;;;;5054438;28;20455;-76
2022/12/21 06:35:24;;;;;;;66.70;8.27;;;;;;;;;;5055039;28;20474;-77
2022/12/21 06:37:51;;;;;;;60.30;6.20;;;;;;;;;;5055324;28;20452;-77
2022/12/21 06:40:18;;;;;;;64.20;7.03;;;;;;;;;;5055528;28;21167;-77
2022/12/21 06:42:46;;;;;;;64.33;7.03;;;;;;;;;;5056114;28;20452;-77
2022/12/21 06:45:14;;;;;;;65.40;6.43;;;;;;;;;;5056556;28;20448;-77
2022/12/21 06:47:41;;;;;;;64.40;6.47;;;;;;;;;;5055514;28;20455;-76
2022/12/21 06:50:08;;;;;;;63.03;6.00;;;;;;;;;;5053589;28;20475;-76
2022/12/21 06:52:36;;;;;;;60.70;6.50;;;;;;;;;;5053763;28;20978;-76
2022/12/21 06:55:03;;;;;;;62.10;6.20;;;;;;;;;;5054371;28;20459;-76
2022/12/21 06:57:32;;;;;;;61.50;6.23;;;;;;;;;;5054492;28;20458;-76
2022/12/21 07:00:01;;;;;;;63.20;6.20;;;;;;;;;;5052929;28;20574;-76
2022/12/21 07:02:28;;;;;;;62.60;5.80;;;;;;;;;;5053791;28;20458;-76
2022/12/21 07:04:55;;;;;;;63.33;6.13;;;;;;;;;;5053576;28;20460;-76
2022/12/21 07:07:22;;;;;;;65.90;6.37;;;;;;;;;;5053659;28;20457;-76
2022/12/21 07:09:49;;;;;;;61.53;5.50;;;;;;;;;;5052904;28;20445;-76
2022/12/21 07:12:16;;;;;;;62.47;5.60;;;;;;;;;;5053412;28;20833;-76
2022/12/21 07:14:43;;;;;;;63.77;5.83;;;;;;;;;;5053570;28;20455;-76
2022/12/21 07:17:12;;;;;;;60.00;5.80;;;;;;;;;;5041573;28;20976;-76
2022/12/21 07:19:39;;;;;;;61.07;6.10;;;;;;;;;;5032696;28;20496;-76
2022/12/21 07:22:06;;;;;;;60.83;6.37;;;;;;;;;;5033528;28;20530;-76
2022/12/21 07:24:33;;;;;;;62.43;5.87;;;;;;;;;;5033298;28;20453;-76
2022/12/21 07:27:00;;;;;;;63.10;6.03;;;;;;;;;;5033175;28;20449;-77
2022/12/21 07:29:27;;;;;;;60.00;5.43;;;;;;;;;;5032647;28;20446;-76
2022/12/21 07:31:55;;;;;;;63.50;5.57;;;;;;;;;;5034627;28;20481;-77
2022/12/21 07:34:23;;;;;;;60.20;5.40;;;;;;;;;;5033579;28;20455;-77
2022/12/21 07:36:50;;;;;;;60.00;6.30;;;;;;;;;;5035733;28;20834;-77
2022/12/21 07:39:17;;;;;;;62.20;5.83;;;;;;;;;;5033497;28;20459;-77
2022/12/21 07:41:44;;;;;;;62.03;6.10;;;;;;;;;;5033401;28;20481;-75
2022/12/21 07:44:11;;;;;;;59.77;4.97;;;;;;;;;;5033080;28;20950;-76
2022/12/21 07:46:38;;;;;;;61.50;5.77;;;;;;;;;;5032951;28;20449;-75
2022/12/21 07:49:06;;;;;;;61.20;5.47;;;;;;;;;;5032024;28;20460;-76
2022/12/21 07:51:34;;;;;;;61.00;5.90;;;;;;;;;;5032841;28;20469;-76
2022/12/21 07:54:01;;;;;;;60.30;4.90;;;;;;;;;;5032689;28;20832;-75
2022/12/21 07:56:28;;;;;;;62.47;5.53;;;;;;;;;;5032876;28;20483;-75
2022/12/21 07:58:55;;;;;;;60.07;5.50;;;;;;;;;;5031477;28;20457;-75
2022/12/21 08:01:26;;;;;;;60.27;5.10;;;;;;;;;;5031716;28;20854;-75
2022/12/21 08:03:53;;;;;;;60.37;4.50;;;;;;;;;;5032886;28;20456;-75
2022/12/21 08:06:20;;;;;;;59.90;5.50;;;;;;;;;;5032467;28;20984;-75
2022/12/21 08:08:49;;;;;;;64.57;5.27;;;;;;;;;;5031600;28;20842;-75
2022/12/21 08:11:17;;;;;;;62.33;5.30;;;;;;;;;;5032469;28;20476;-75
2022/12/21 08:13:44;;;;;;;63.40;4.77;;;;;;;;;;5032359;28;20460;-75
2022/12/21 08:16:12;;;;;;;62.10;5.30;;;;;;;;;;5032438;28;20449;-74
2022/12/21 08:18:39;;;;;;;59.20;4.30;;;;;;;;;;5031484;28;20942;-74
2022/12/21 08:21:06;;;;;;;61.70;4.77;;;;;;;;;;5032075;28;20997;-75
2022/12/21 08:23:34;;;;;;;61.40;4.90;;;;;;;;;;5032442;28;20448;-74
2022/12/21 08:26:03;;;;;;;63.63;5.30;;;;;;;;;;5032313;28;20453;-74
2022/12/21 08:28:30;;;;;;;62.70;5.90;;;;;;;;;;5031908;28;20504;-74
2022/12/21 08:31:07;;;;;;;60.80;5.00;;;;;;;;;;5031890;28;20488;-74
2022/12/21 08:33:35;;;;;;;60.73;5.03;;;;;;;;;;5031959;28;20796;-75
2022/12/21 08:36:02;;;;;;;60.27;5.30;;;;;;;;;;5032166;28;20464;-74
2022/12/21 08:38:29;;;;;;;59.57;4.93;;;;;;;;;;5031843;28;20453;-74
2022/12/21 08:41:01;;;;;;;60.70;5.03;;;;;;;;;;5031397;28;20489;-75
2022/12/21 08:43:30;;;;;;;61.10;5.63;;;;;;;;;;5032009;28;20453;-74
2022/12/21 08:45:57;;;;;;;60.67;5.30;;;;;;;;;;5031265;28;20455;-75
2022/12/21 08:48:24;;;;;;;64.63;6.60;;;;;;;;;;5031829;28;20461;-74
2022/12/21 08:50:51;;;;;;;61.37;5.70;;;;;;;;;;5031311;28;20461;-75
2022/12/21 08:53:18;;;;;;;62.27;5.40;;;;;;;;;;5031931;28;20523;-75
2022/12/21 08:55:46;;;;;;;61.47;5.77;;;;;;;;;;5031779;28;20455;-75
2022/12/21 08:58:13;;;;;;;67.00;5.97;;;;;;;;;;5031747;28;20449;-74
2022/12/21 09:00:42;;;;;;;60.37;5.53;;;;;;;;;;5030821;28;20501;-74
2022/12/21 09:03:09;;;;;;;64.67;6.07;;;;;;;;;;5031980;28;20456;-74
2022/12/21 09:05:37;;;;;;;61.57;5.80;;;;;;;;;;5031856;28;20814;-74
2022/12/21 09:08:04;;;;;;;61.43;5.80;;;;;;;;;;5031709;28;20445;-74
2022/12/21 09:10:31;;;;;;;62.17;5.57;;;;;;;;;;5031012;28;20487;-74
2022/12/21 09:12:58;;;;;;;62.13;5.80;;;;;;;;;;5032150;28;20821;-74
2022/12/21 09:15:25;;;;;;;60.57;5.97;;;;;;;;;;5031528;28;20445;-75
2022/12/21 09:17:54;;;;;;;62.40;6.40;;;;;;;;;;5031418;28;20984;-74
2022/12/21 09:20:21;;;;;;;62.90;5.80;;;;;;;;;;5030943;28;20492;-74
2022/12/21 09:22:48;;;;;;;60.60;5.73;;;;;;;;;;5031769;28;20480;-74
2022/12/21 09:25:15;;;;;;;62.10;5.37;;;;;;;;;;5031502;28;20449;-74
2022/12/21 09:27:42;;;;;;;62.60;5.63;;;;;;;;;;5031276;28;20548;-72
2022/12/21 09:30:10;;;;;;;66.57;6.37;;;;;;;;;;5030926;28;20472;-72
2022/12/21 09:32:37;;;;;;;62.07;4.93;;;;;;;;;;5031328;28;20525;-72
2022/12/21 09:35:06;;;;;;;60.70;6.13;;;;;;;;;;5031548;28;20449;-72
2022/12/21 09:37:33;;;;;;;60.80;5.33;;;;;;;;;;5031946;28;20495;-72
2022/12/21 09:40:00;;;;;;;61.87;5.47;;;;;;;;;;5030414;28;20942;-72
2022/12/21 09:42:34;;;;;;;64.60;6.00;;;;;;;;;;5031147;28;20449;-72
2022/12/21 09:45:07;;;;;;;60.57;5.40;;;;;;;;;;5031246;28;20452;-72
2022/12/21 09:47:36;;;;;;;62.50;5.90;;;;;;;;;;5031270;28;20445;-72
2022/12/21 09:50:06;;;;;;;61.00;5.30;;;;;;;;;;5030359;28;20453;-72
2022/12/21 09:52:36;;;;;;;65.40;6.20;;;;;;;;;;5031226;28;20827;-72
2022/12/21 09:55:05;;;;;;;61.73;5.53;;;;;;;;;;5031099;28;20461;-72
2022/12/21 09:57:34;;;;;;;62.00;6.00;;;;;;;;;;5034229;28;20957;-73
2022/12/21 10:00:01;;;;;;;61.77;5.63;;;;;;;;;;5033911;28;20444;-72
2022/12/21 10:02:37;;;;;;;59.50;5.23;;;;;;;;;;5034904;28;20523;-72
2022/12/21 10:05:13;;;;;;;60.90;4.80;;;;;;;;;;5034826;28;20964;-72
2022/12/21 10:07:56;;;;;;;65.07;6.23;;;;;;;;;;5034801;28;20448;-71
2022/12/21 10:10:27;;;;;;;61.40;6.03;;;;;;;;;;5014276;28;20994;-72
2022/12/21 10:12:55;;;;;;;62.60;6.00;;;;;;;;;;5014989;28;20450;-72
2022/12/21 10:15:28;;;;;;;65.30;5.20;;;;;;;;;;5015086;28;20453;-72
2022/12/21 10:18:00;;;;;;;60.67;5.20;;;;;;;;;;5014855;28;20549;-72
2022/12/21 10:20:33;;;;;;;64.23;5.50;;;;;;;;;;5013945;28;20488;-72
2022/12/21 10:23:02;;;;;;;64.97;8.77;;;;;;;;;;5014797;28;20458;-73
2022/12/21 10:25:35;;;;;;;62.87;5.93;;;;;;;;;;5014740;28;20446;-73
2022/12/21 10:28:07;;;;;;;62.30;5.53;;;;;;;;;;5014719;28;20450;-73
2022/12/21 10:30:34;;;;;;;60.43;5.30;;;;;;;;;;5014151;28;20551;-73
2022/12/21 10:33:01;;;;;;;65.17;5.73;;;;;;;;;;5014787;28;20461;-73
2022/12/21 10:35:31;;;;;;;60.23;5.43;;;;;;;;;;5014642;28;20981;-73
2022/12/21 10:38:00;;;;;;;61.90;5.30;;;;;;;;;;5014496;28;20456;-74
2022/12/21 10:40:29;;;;;;;62.73;5.10;;;;;;;;;;5013705;28;20519;-74
2022/12/21 10:42:57;;;;;;;59.70;4.97;;;;;;;;;;5014282;28;20450;-74
2022/12/21 10:45:24;;;;;;;62.07;4.60;;;;;;;;;;5014655;28;20457;-74
2022/12/21 10:47:52;;;;;;;58.97;4.90;;;;;;;;;;5013110;28;20458;-74
2022/12/21 10:50:21;;;;;;;66.93;10.37;;;;;;;;;;5032981;28;20552;-75
2022/12/21 10:52:49;;;;;;;61.87;5.33;;;;;;;;;;5052983;28;20448;-74
2022/12/21 10:55:29;;;;;;;63.00;4.93;;;;;;;;;;5053036;28;20454;-76
2022/12/21 10:57:57;;;;;;;59.90;4.53;;;;;;;;;;5053416;28;20448;-75
2022/12/21 11:00:26;;;;;;;60.60;5.40;;;;;;;;;;5052394;28;20468;-76
2022/12/21 11:02:56;;;;;;;62.93;4.97;;;;;;;;;;5053211;28;20478;-75
2022/12/21 11:05:28;;;;;;;60.60;5.33;;;;;;;;;;5053019;28;20448;-76
2022/12/21 11:07:55;;;;;;;61.17;4.87;;;;;;;;;;5051952;28;20624;-77
2022/12/21 11:10:26;;;;;;;62.70;5.60;;;;;;;;;;5052260;28;20472;-76
2022/12/21 11:12:55;;;;;;;59.67;4.20;;;;;;;;;;5053450;28;20547;-76
2022/12/21 11:15:23;;;;;;;61.50;4.90;;;;;;;;;;5053289;28;20499;-76
2022/12/21 11:17:51;;;;;;;64.60;4.80;;;;;;;;;;5053228;28;20459;-76
2022/12/21 11:20:19;;;;;;;59.50;4.80;;;;;;;;;;5052003;28;20472;-76
2022/12/21 11:22:47;;;;;;;60.50;4.83;;;;;;;;;;5052922;28;20780;-76
2022/12/21 11:25:16;;;;;;;61.17;4.53;;;;;;;;;;5053275;28;20831;-76
2022/12/21 11:27:45;;;;;;;58.90;3.90;;;;;;;;;;5053027;28;20835;-76
2022/12/21 11:30:18;;;;;;;59.87;4.77;;;;;;;;;;5051793;28;20472;-76
2022/12/21 11:32:46;;;;;;;61.00;5.33;;;;;;;;;;5052688;28;20448;-76
2022/12/21 11:35:18;;;;;;;59.47;4.30;;;;;;;;;;5052984;28;20835;-76
2022/12/21 11:37:46;;;;;;;59.47;4.10;;;;;;;;;;5052838;28;20448;-76
2022/12/21 11:40:18;;;;;;;59.13;4.53;;;;;;;;;;5051876;28;20460;-76
2022/12/21 11:42:53;;;;;;;61.00;4.93;;;;;;;;;;5043128;28;20488;-76
2022/12/21 11:45:22;;;;;;;58.67;4.20;;;;;;;;;;5032748;28;20449;-76
2022/12/21 11:47:55;;;;;;;60.37;4.73;;;;;;;;;;5032542;28;20449;-76
2022/12/21 11:50:31;;;;;;;60.10;4.57;;;;;;;;;;5031412;28;20479;-76
2022/12/21 11:53:16;;;;;;;67.47;7.53;;;;;;;;;;5033043;28;20790;-76
2022/12/21 11:55:49;;;;;;;62.03;4.70;;;;;;;;;;5020101;28;20457;-77
2022/12/21 11:58:21;;;;;;;64.97;7.40;;;;;;;;;;5032529;28;20445;-76
2022/12/21 12:00:55;;;;;;;60.37;4.60;;;;;;;;;;5031825;28;20892;-76
2022/12/21 12:03:30;;;;;;;65.27;7.63;;;;;;;;;;5032424;28;20441;-76
2022/12/21 12:06:03;;;;;;;62.67;6.60;;;;;;;;;;5032182;28;20455;-76
2022/12/21 12:08:44;;;;;;;66.07;7.60;;;;;;;;;;5031638;28;20452;-76
2022/12/21 12:11:15;;;;;;;60.90;5.77;;;;;;;;;;5032400;28;20491;-76
2022/12/21 12:13:48;;;;;;;73.40;13.00;;;;;;;;;;5031398;28;20445;-76
2022/12/21 12:16:19;;;;;;;66.57;8.33;;;;;;;;;;5045909;28;20448;-76
2022/12/21 12:18:52;;;;;;;63.00;5.13;;;;;;;;;;5051030;28;20436;-76
2022/12/21 12:21:40;;;;;;;63.90;7.37;;;;;;;;;;5052116;28;20492;-76
2022/12/21 12:24:16;;;;;;;65.17;7.80;;;;;;;;;;5051909;28;20452;-77
2022/12/21 12:26:50;;;;;;;64.37;8.90;;;;;;;;;;5051937;28;20944;-77
2022/12/21 12:29:35;;;;;;;62.60;7.87;;;;;;;;;;5050895;28;20448;-77
2022/12/21 12:32:09;;;;;;;66.27;7.50;;;;;;;;;;5051525;28;20494;-76
2022/12/21 12:34:43;;;;;;;62.07;5.70;;;;;;;;;;5051721;28;20454;-76
2022/12/21 12:37:17;;;;;;;62.20;6.60;;;;;;;;;;5052053;28;20459;-76
2022/12/21 12:39:49;;;;;;;60.60;5.50;;;;;;;;;;5051532;28;20448;-77
2022/12/21 12:42:20;;;;;;;60.00;4.80;;;;;;;;;;5051764;28;20514;-75
2022/12/21 12:44:56;;;;;;;59.27;4.40;;;;;;;;;;5051329;28;20455;-76
2022/12/21 12:47:30;;;;;;;65.33;5.63;;;;;;;;;;5047138;28;20467;-76
2022/12/21 12:50:03;;;;;;;59.90;4.57;;;;;;;;;;5050693;28;20625;-75
2022/12/21 12:52:37;;;;;;;59.07;4.60;;;;;;;;;;5051512;28;20482;-76
2022/12/21 12:55:12;;;;;;;60.47;5.00;;;;;;;;;;5051271;28;20550;-75
2022/12/21 12:57:44;;;;;;;61.17;5.30;;;;;;;;;;5051634;28;20521;-75
2022/12/21 13:00:12;;;;;;;59.60;4.33;;;;;;;;;;5050214;28;20464;-75
2022/12/21 13:02:45;;;;;;;60.50;4.50;;;;;;;;;;5051344;28;20499;-75
2022/12/21 13:05:24;;;;;;;62.00;4.40;;;;;;;;;;5051452;28;20547;-75
2022/12/21 13:07:53;;;;;;;60.80;4.33;;;;;;;;;;5051789;28;20531;-76
2022/12/21 13:10:24;;;;;;;59.10;3.80;;;;;;;;;;5050445;28;20512;-76
2022/12/21 13:12:57;;;;;;;60.10;3.83;;;;;;;;;;5050959;28;20957;-76
2022/12/21 13:15:27;;;;;;;59.67;4.03;;;;;;;;;;5051835;28;20808;-75
2022/12/21 13:17:58;;;;;;;58.80;4.10;;;;;;;;;;5046547;28;20468;-75
2022/12/21 13:20:27;;;;;;;61.10;3.60;;;;;;;;;;5050475;28;20980;-75
2022/12/21 13:22:57;;;;;;;60.37;3.83;;;;;;;;;;5051109;28;20839;-75
2022/12/21 13:25:28;;;;;;;59.57;4.30;;;;;;;;;;5051197;28;20448;-75
2022/12/21 13:27:56;;;;;;;59.60;4.10;;;;;;;;;;5051318;28;20483;-76
2022/12/21 13:30:24;;;;;;;59.20;3.83;;;;;;;;;;5050390;28;20762;-75
2022/12/21 13:32:53;;;;;;;59.93;4.40;;;;;;;;;;5054996;28;20879;-75
2022/12/21 13:35:23;;;;;;;58.70;4.03;;;;;;;;;;5055136;28;20829;-75
2022/12/21 13:37:55;;;;;;;60.90;3.90;;;;;;;;;;5055567;28;20456;-75
2022/12/21 13:40:23;;;;;;;59.60;4.23;;;;;;;;;;5055051;28;20479;-76
2022/12/21 13:42:52;;;;;;;59.10;4.40;;;;;;;;;;5055506;28;20484;-75
2022/12/21 13:45:24;;;;;;;60.00;4.13;;;;;;;;;;5055761;28;20452;-75
2022/12/21 13:47:52;;;;;;;59.70;4.20;;;;;;;;;;5055241;28;20968;-75
2022/12/21 13:50:34;;;;;;;59.93;4.20;;;;;;;;;;5053426;28;20484;-75
2022/12/21 13:53:04;;;;;;;61.50;3.80;;;;;;;;;;5056856;28;20448;-76
2022/12/21 13:55:36;;;;;;;60.00;4.00;;;;;;;;;;5056723;28;20852;-76
2022/12/21 13:58:09;;;;;;;59.20;3.80;;;;;;;;;;5056053;28;20448;-76
2022/12/21 14:00:39;;;;;;;58.93;3.73;;;;;;;;;;5055127;28;21008;-76
2022/12/21 14:03:10;;;;;;;58.70;3.60;;;;;;;;;;5055123;28;20853;-76
2022/12/21 14:05:43;;;;;;;59.30;3.80;;;;;;;;;;5054969;28;20459;-76
2022/12/21 14:08:23;;;;;;;58.20;3.33;;;;;;;;;;5054974;28;20452;-76
2022/12/21 14:10:56;;;;;;;60.17;4.60;;;;;;;;;;5054060;28;20564;-76
2022/12/21 14:13:42;;;;;;;59.00;3.53;;;;;;;;;;5054693;28;20908;-76
2022/12/21 14:16:16;;;;;;;59.80;3.93;;;;;;;;;;5054748;28;20454;-76
2022/12/21 14:18:44;;;;;;;58.60;3.40;;;;;;;;;;5054005;28;20458;-75
2022/12/21 14:21:18;;;;;;;58.57;3.60;;;;;;;;;;5054384;28;20479;-76
2022/12/21 14:23:48;;;;;;;58.90;3.53;;;;;;;;;;5054525;28;20456;-76
2022/12/21 14:26:29;;;;;;;58.67;3.27;;;;;;;;;;5054798;28;20828;-76
2022/12/21 14:29:02;;;;;;;59.30;3.90;;;;;;;;;;5054245;28;20452;-76
2022/12/21 14:31:30;;;;;;;58.50;3.60;;;;;;;;;;5054140;28;20988;-76
2022/12/21 14:33:58;;;;;;;59.10;3.70;;;;;;;;;;5054300;28;20452;-76
2022/12/21 14:36:28;;;;;;;59.93;3.90;;;;;;;;;;5054772;28;20449;-76
2022/12/21 14:39:14;;;;;;;58.17;3.50;;;;;;;;;;5053465;28;20820;-77
2022/12/21 14:41:41;;;;;;;58.87;3.70;;;;;;;;;;5054045;28;20492;-76
2022/12/21 14:44:12;;;;;;;62.20;4.20;;;;;;;;;;5053184;28;20817;-76
2022/12/21 14:46:40;;;;;;;60.87;4.47;;;;;;;;;;5054536;28;20462;-76
2022/12/21 14:49:09;;;;;;;58.90;4.27;;;;;;;;;;5053758;28;20531;-76
2022/12/21 14:51:48;;;;;;;58.97;3.90;;;;;;;;;;5054301;28;20468;-76
2022/12/21 14:54:20;;;;;;;60.80;4.33;;;;;;;;;;5054425;28;20455;-76
2022/12/21 14:57:17;;;;;;;60.00;4.90;;;;;;;;;;5054157;28;20448;-76